Time;durP1;ratioP1;P1;durP2;ratioP2;P2;SDS_P1;SDS_P2;PMS_P1;PMS_P2;Temp;Humidity;BMP_temperature;BMP_pressure;BME280_temperature;BME280_humidity;BME280_pressure;Samples;Min_cycle;Max_cycle;Signal;HPM_P1;HPM_P2
2022/05/20 00:00:39;;;;;;;5.70;4.40;;;;;;;20.55;60.03;101754.06;5002546;28;97409;-85
2022/05/20 00:03:05;;;;;;;5.13;4.67;;;;;;;20.55;59.97;101754.78;4989888;28;96926;-85
2022/05/20 00:05:31;;;;;;;5.20;4.77;;;;;;;20.56;59.86;101742.31;4985459;28;99448;-85
2022/05/20 00:07:56;;;;;;;5.00;4.60;;;;;;;20.56;59.98;101745.13;4993823;28;98694;-86
2022/05/20 00:10:22;;;;;;;4.67;4.37;;;;;;;20.57;60.03;101735.47;4995348;28;96704;-87
2022/05/20 00:12:48;;;;;;;5.20;4.80;;;;;;;20.57;59.82;101717.91;5000516;28;97168;-85
2022/05/20 00:15:17;;;;;;;4.90;4.50;;;;;;;20.52;59.81;101744.69;5004709;28;99508;-84
2022/05/20 00:17:43;;;;;;;4.93;4.63;;;;;;;20.53;59.90;101742.66;4986191;28;97714;-85
2022/05/20 00:20:11;;;;;;;6.70;6.00;;;;;;;20.51;59.93;101732.00;4984851;28;96849;-86
2022/05/20 00:22:37;;;;;;;5.17;4.80;;;;;;;20.48;59.86;101746.28;4987750;28;96972;-85
2022/05/20 00:27:46;;;;;;;5.10;4.70;;;;;;;20.44;59.82;101738.25;4996429;28;101655;-85
2022/05/20 00:30:12;;;;;;;5.53;5.03;;;;;;;20.43;59.83;101728.31;4986583;28;97310;-86
2022/05/20 00:32:38;;;;;;;5.03;4.63;;;;;;;20.39;59.89;101738.31;4986311;28;97157;-85
2022/05/20 00:35:04;;;;;;;5.50;5.00;;;;;;;20.33;59.77;101744.03;4982314;28;96919;-87
2022/05/20 00:37:30;;;;;;;5.27;4.87;;;;;;;20.28;59.96;101738.50;4979486;28;97715;-85
2022/05/20 00:39:55;;;;;;;5.20;4.80;;;;;;;20.23;60.05;101759.66;4987499;28;96943;-85
2022/05/20 00:42:20;;;;;;;6.80;6.20;;;;;;;20.20;60.13;101752.34;4986251;28;96857;-86
2022/05/20 00:44:46;;;;;;;5.43;4.97;;;;;;;20.21;60.20;101747.50;4991892;28;99833;-85
2022/05/20 00:47:12;;;;;;;5.07;4.67;;;;;;;20.19;60.30;101750.81;4986526;28;97441;-86
2022/05/20 00:49:41;;;;;;;5.60;5.07;;;;;;;20.17;60.03;101742.22;4985031;28;97059;-85
2022/05/20 00:52:11;;;;;;;7.83;5.30;;;;;;;20.14;60.06;101760.03;4999857;28;96983;-85
2022/05/20 00:54:40;;;;;;;5.10;4.80;;;;;;;20.12;60.25;101745.84;5004340;28;99188;-85
2022/05/20 00:57:17;;;;;;;4.87;4.47;;;;;;;20.10;60.50;101743.59;4987125;28;97957;-85
2022/05/20 00:59:50;;;;;;;7.30;5.60;;;;;;;20.06;60.28;101751.53;4992552;28;96838;-85
2022/05/20 01:02:18;;;;;;;5.23;4.83;;;;;;;20.02;60.12;101753.13;4985351;28;97094;-86
2022/05/20 01:04:44;;;;;;;6.90;6.30;;;;;;;19.99;60.19;101760.53;5004378;28;97147;-86
2022/05/20 01:07:11;;;;;;;6.67;6.07;;;;;;;20.01;60.15;101762.78;4996783;28;97063;-85
2022/05/20 01:09:37;;;;;;;7.87;6.60;;;;;;;19.97;60.17;101765.13;5003318;28;97059;-85
2022/05/20 01:12:04;;;;;;;8.40;6.90;;;;;;;19.97;60.14;101776.31;4999718;28;96819;-85
2022/05/20 01:14:29;;;;;;;7.60;6.67;;;;;;;19.96;60.13;101760.84;4987941;28;97603;-85
2022/05/20 01:16:55;;;;;;;7.07;6.37;;;;;;;19.94;60.28;101760.63;4980195;28;97833;-85
2022/05/20 01:19:44;;;;;;;7.17;6.20;;;;;;;19.88;61.01;101766.28;4979222;28;97029;-86
2022/05/20 01:22:12;;;;;;;10.13;7.17;;;;;;;19.85;60.28;101766.59;4989644;28;96996;-86
2022/05/20 01:24:37;;;;;;;8.43;7.67;;;;;;;19.85;60.35;101786.91;4987676;28;99535;-85
2022/05/20 01:27:04;;;;;;;8.70;7.90;;;;;;;19.85;60.25;101766.59;4999487;28;97069;-86
2022/05/20 01:29:30;;;;;;;13.67;7.40;;;;;;;19.83;60.20;101771.97;4985872;28;97001;-86
2022/05/20 01:31:55;;;;;;;8.00;7.07;;;;;;;19.76;60.19;101778.16;4988176;28;96713;-86
2022/05/20 01:34:21;;;;;;;9.10;7.03;;;;;;;19.73;60.18;101782.00;4981860;28;100113;-86
2022/05/20 01:36:46;;;;;;;9.67;8.70;;;;;;;19.64;60.34;101791.50;4982707;28;98578;-85
2022/05/20 01:39:12;;;;;;;11.13;8.80;;;;;;;19.64;60.24;101793.53;5004312;28;97012;-86
2022/05/20 01:42:03;;;;;;;10.03;8.97;;;;;;;19.58;61.11;101785.25;4997768;28;96971;-86
2022/05/20 01:44:40;;;;;;;9.80;8.70;;;;;;;19.55;60.57;101794.66;4939435;28;100536;-85
2022/05/20 01:47:25;;;;;;;9.50;8.60;;;;;;;19.52;60.37;101794.97;4981480;28;97199;-86
2022/05/20 01:49:58;;;;;;;9.23;8.43;;;;;;;19.49;60.49;101782.06;4986057;28;97350;-85
2022/05/20 01:52:44;;;;;;;9.60;8.70;;;;;;;19.46;60.23;101788.72;4985678;28;97009;-87
2022/05/20 01:55:27;;;;;;;8.47;7.67;;;;;;;19.42;60.11;101789.75;4987255;28;99500;-86
2022/05/20 01:58:06;;;;;;;9.33;8.27;;;;;;;19.38;60.49;101782.97;4981585;28;102244;-85
2022/05/20 02:00:34;;;;;;;9.57;8.63;;;;;;;19.34;60.20;101780.47;4984828;28;98526;-85
2022/05/20 02:03:36;;;;;;;10.27;9.27;;;;;;;19.31;60.60;101775.16;4977831;28;97207;-85
2022/05/20 02:06:09;;;;;;;11.23;8.87;;;;;;;19.24;60.30;101786.94;5001213;28;103893;-85
2022/05/20 02:08:40;;;;;;;10.43;8.97;;;;;;;19.20;60.12;101778.84;4984602;28;102688;-86
2022/05/20 02:11:11;;;;;;;10.57;8.70;;;;;;;19.15;60.25;101782.47;4986340;28;97155;-85
2022/05/20 02:13:41;;;;;;;8.80;8.00;;;;;;;19.12;60.11;101786.31;5007644;28;97327;-86
2022/05/20 02:16:14;;;;;;;10.37;9.20;;;;;;;19.05;60.30;101783.31;5008345;28;102471;-86
2022/05/20 02:18:45;;;;;;;10.10;9.10;;;;;;;19.04;60.24;101790.19;5010272;28;100237;-86
2022/05/20 02:21:15;;;;;;;9.63;8.70;;;;;;;19.00;60.24;101782.09;5009138;28;97166;-86
2022/05/20 02:23:46;;;;;;;10.70;9.60;;;;;;;19.00;60.33;101776.53;4982027;28;97457;-85
2022/05/20 02:26:15;;;;;;;11.03;9.70;;;;;;;19.00;60.44;101781.38;4987560;28;99980;-85
2022/05/20 02:28:48;;;;;;;12.70;11.27;;;;;;;19.01;60.68;101780.06;4987753;28;98605;-86
2022/05/20 02:31:19;;;;;;;10.60;9.50;;;;;;;19.00;60.51;101786.94;5004490;28;96853;-86
2022/05/20 02:33:45;;;;;;;15.23;9.67;;;;;;;18.98;60.45;101767.19;5006380;28;96827;-85
2022/05/20 02:36:18;;;;;;;12.77;10.23;;;;;;;19.00;60.97;101778.59;4987964;28;96914;-86
2022/05/20 02:38:43;;;;;;;11.50;10.30;;;;;;;19.00;60.49;101775.78;5004515;28;97732;-86
2022/05/20 02:41:09;;;;;;;11.50;9.90;;;;;;;18.98;60.42;101781.16;4987392;28;97028;-85
2022/05/20 02:43:34;;;;;;;11.53;10.43;;;;;;;18.99;60.47;101793.78;4992056;28;97080;-85
2022/05/20 02:46:01;;;;;;;13.90;10.70;;;;;;;18.99;60.69;101807.75;5006736;28;97679;-85
2022/05/20 02:48:27;;;;;;;15.50;9.63;;;;;;;18.99;60.68;101794.56;4991089;28;97024;-85
2022/05/20 02:50:52;;;;;;;10.87;9.80;;;;;;;19.00;60.69;101796.06;4991966;28;97152;-86
2022/05/20 02:53:18;;;;;;;10.87;9.77;;;;;;;19.00;60.68;101792.53;5001126;28;96898;-86
2022/05/20 02:55:44;;;;;;;11.57;10.37;;;;;;;19.01;60.51;101808.72;4992442;28;97174;-86
2022/05/20 03:04:09;;;;;;;13.20;11.27;;;;;;;19.02;60.51;101801.13;4987241;28;99395;-85
2022/05/20 03:06:22;;;;;;;10.13;9.10;;;;;;;18.99;60.46;101802.94;5001637;28;101509;-86
2022/05/20 03:08:47;;;;;;;11.43;10.03;;;;;;;18.98;60.43;101809.03;4988696;28;98963;-86
2022/05/20 03:11:13;;;;;;;12.07;9.87;;;;;;;18.97;60.64;101807.50;4991393;28;98912;-85
2022/05/20 03:13:39;;;;;;;17.33;10.57;;;;;;;18.96;60.52;101817.91;4985127;28;97063;-86
2022/05/20 03:16:04;;;;;;;10.47;9.37;;;;;;;18.96;60.56;101803.97;4993736;28;96749;-84
2022/05/20 03:18:29;;;;;;;14.00;10.97;;;;;;;18.95;60.51;101810.84;5001439;28;99316;-85
2022/05/20 03:20:55;;;;;;;14.30;10.33;;;;;;;18.93;60.66;101807.81;4987601;28;97364;-86
2022/05/20 03:23:20;;;;;;;11.67;9.80;;;;;;;18.93;60.66;101810.59;4991869;28;97263;-86
2022/05/20 03:25:45;;;;;;;10.77;9.70;;;;;;;18.92;60.55;101811.88;4981966;28;98810;-86
2022/05/20 03:28:11;;;;;;;16.93;9.83;;;;;;;18.91;60.63;101813.16;5004964;28;100409;-84
2022/05/20 03:30:37;;;;;;;15.90;11.37;;;;;;;18.87;60.51;101825.88;5004080;28;97215;-85
2022/05/20 03:33:02;;;;;;;11.30;10.20;;;;;;;18.87;60.68;101814.72;4987271;28;97007;-86
2022/05/20 03:35:27;;;;;;;12.67;10.83;;;;;;;18.85;60.59;101836.81;4987404;28;97879;-85
2022/05/20 03:37:53;;;;;;;11.33;10.20;;;;;;;18.78;60.63;101809.50;5004304;28;97394;-85
2022/05/20 03:40:18;;;;;;;12.60;10.27;;;;;;;18.79;60.50;101808.19;5005445;28;96933;-85
2022/05/20 03:42:43;;;;;;;10.67;9.57;;;;;;;18.77;60.55;101819.88;4997490;28;97019;-86
2022/05/20 03:45:10;;;;;;;13.43;10.27;;;;;;;18.76;60.68;101820.41;5003748;28;97303;-86
2022/05/20 03:47:35;;;;;;;10.90;9.50;;;;;;;18.75;60.61;101830.78;4988706;28;99041;-86
2022/05/20 03:50:01;;;;;;;14.77;9.70;;;;;;;18.73;60.50;101825.00;5005803;28;96940;-85
2022/05/20 03:52:26;;;;;;;15.47;10.57;;;;;;;18.68;60.64;101809.06;4982398;28;96919;-85
2022/05/20 03:54:52;;;;;;;11.70;9.40;;;;;;;18.66;60.62;101823.53;4984772;28;98657;-85
2022/05/20 03:57:17;;;;;;;10.73;8.87;;;;;;;18.63;60.71;101837.75;4984769;28;96860;-85
2022/05/20 03:59:43;;;;;;;11.50;10.33;;;;;;;18.63;61.02;101837.75;4981451;28;96938;-86
2022/05/20 04:02:12;;;;;;;12.23;10.73;;;;;;;18.64;60.95;101826.09;4981877;28;97159;-86
2022/05/20 04:04:47;;;;;;;10.83;9.70;;;;;;;18.65;61.00;101821.28;4987431;28;98881;-85
2022/05/20 04:07:18;;;;;;;16.73;10.47;;;;;;;18.63;60.71;101830.13;4987772;28;104092;-86
2022/05/20 04:09:45;;;;;;;17.33;10.53;;;;;;;18.62;60.86;101825.09;5002607;28;97047;-86
2022/05/20 04:12:19;;;;;;;11.00;9.90;;;;;;;18.63;61.18;101832.19;5006755;28;96882;-86
2022/05/20 04:14:45;;;;;;;15.10;9.87;;;;;;;18.67;60.91;101844.53;5003072;28;98137;-86
2022/05/20 04:17:10;;;;;;;11.60;9.33;;;;;;;18.67;60.86;101833.38;4991442;28;98251;-86
2022/05/20 04:19:36;;;;;;;10.73;9.73;;;;;;;18.67;60.97;101844.53;4998031;28;97243;-86
2022/05/20 04:22:07;;;;;;;11.40;9.30;;;;;;;18.68;60.90;101859.25;4990894;28;97115;-86
2022/05/20 04:24:33;;;;;;;9.00;8.13;;;;;;;18.66;60.75;101850.66;4987749;28;98871;-86
2022/05/20 04:26:58;;;;;;;10.00;9.00;;;;;;;18.66;60.72;101853.44;4998658;28;98706;-86
2022/05/20 04:29:24;;;;;;;9.67;8.77;;;;;;;18.63;60.72;101894.25;5000394;28;96929;-86
2022/05/20 04:31:50;;;;;;;7.63;6.93;;;;;;;18.67;60.77;101866.09;5006481;28;96916;-86
2022/05/20 04:34:17;;;;;;;8.50;7.00;;;;;;;18.68;60.93;101859.25;5006184;28;97265;-86
2022/05/20 04:36:43;;;;;;;7.77;7.07;;;;;;;18.66;60.64;101862.56;4999898;28;97101;-86
2022/05/20 04:39:09;;;;;;;8.23;7.53;;;;;;;18.66;60.57;101856.97;4987290;28;97185;-85
2022/05/20 04:47:06;;;;;;;7.90;7.20;;;;;;;18.63;60.71;101866.38;4999859;28;100087;-87
2022/05/20 04:49:32;;;;;;;8.03;7.07;;;;;;;18.67;60.58;101871.69;5003574;28;96839;-87
2022/05/20 04:52:00;;;;;;;7.80;7.00;;;;;;;18.68;60.55;101868.38;4999046;28;96818;-85
2022/05/20 04:57:26;;;;;;;8.00;7.30;;;;;;;18.72;60.69;101876.44;5000952;28;100062;-85
2022/05/20 04:59:52;;;;;;;7.73;7.03;;;;;;;18.71;60.35;101888.88;5001226;28;96774;-86
2022/05/20 05:02:18;;;;;;;7.47;6.87;;;;;;;18.74;60.49;101867.56;4986308;28;96827;-86
2022/05/20 05:04:44;;;;;;;7.97;7.20;;;;;;;18.70;60.62;101884.56;4987243;28;99928;-87
2022/05/20 05:07:11;;;;;;;6.93;6.40;;;;;;;18.74;60.67;101875.94;4988628;28;97301;-85
2022/05/20 05:09:39;;;;;;;6.37;5.80;;;;;;;18.76;60.49;101893.66;4978936;28;96523;-86
2022/05/20 05:12:05;;;;;;;7.97;6.70;;;;;;;18.76;60.69;101881.75;5000982;28;96863;-85
2022/05/20 05:14:38;;;;;;;6.33;5.70;;;;;;;18.73;60.82;101880.75;4984836;28;97223;-86
2022/05/20 05:17:09;;;;;;;6.27;5.80;;;;;;;18.69;60.68;101881.03;5002206;28;97356;-85
2022/05/20 05:19:36;;;;;;;6.83;6.10;;;;;;;18.74;60.90;101892.66;5001742;28;97378;-86
2022/05/20 05:22:04;;;;;;;6.73;6.17;;;;;;;18.77;60.99;101889.59;5000491;28;97482;-87
2022/05/20 05:24:29;;;;;;;6.20;5.60;;;;;;;18.82;60.70;101913.13;4989676;28;97601;-86
2022/05/20 05:26:55;;;;;;;7.10;6.00;;;;;;;18.83;60.74;101911.88;4985019;28;97398;-85
2022/05/20 05:29:20;;;;;;;4.93;4.50;;;;;;;18.84;60.57;101946.81;4999021;28;96662;-86
2022/05/20 05:31:45;;;;;;;4.80;4.40;;;;;;;18.82;60.45;101929.84;5006250;28;96887;-86
2022/05/20 05:34:11;;;;;;;5.37;4.87;;;;;;;18.79;60.54;101937.22;4986621;28;98551;-86
2022/05/20 05:36:36;;;;;;;10.23;4.83;;;;;;;18.78;60.56;101927.38;4998633;28;97572;-85
2022/05/20 05:39:02;;;;;;;4.80;4.40;;;;;;;18.77;60.47;101939.78;4994832;28;97270;-86
2022/05/20 05:41:28;;;;;;;5.47;4.93;;;;;;;18.73;60.52;101928.16;5003331;28;96956;-86
2022/05/20 05:43:53;;;;;;;5.03;4.63;;;;;;;18.72;60.46;101937.78;4992481;28;97909;-86
2022/05/20 05:46:19;;;;;;;5.07;4.57;;;;;;;18.72;60.54;101934.25;4981751;28;97401;-86
2022/05/20 05:48:45;;;;;;;4.73;4.33;;;;;;;18.70;60.56;101940.34;5004700;28;96968;-86
2022/05/20 05:51:10;;;;;;;5.20;4.80;;;;;;;18.71;60.63;101950.22;4985924;28;96952;-84
2022/05/20 05:53:37;;;;;;;5.53;5.03;;;;;;;18.73;60.62;101930.94;4995988;28;98832;-86
2022/05/20 05:56:05;;;;;;;9.17;5.77;;;;;;;18.73;60.37;101927.38;4998919;28;97754;-86
2022/05/20 05:58:32;;;;;;;10.80;5.97;;;;;;;18.73;60.13;101933.72;5001430;28;96826;-86
2022/05/20 06:00:57;;;;;;;5.50;5.00;;;;;;;18.72;60.07;101935.00;5004466;28;97535;-86
2022/05/20 06:03:23;;;;;;;5.97;5.37;;;;;;;18.73;60.17;101947.66;5002447;28;96825;-88
2022/05/20 06:05:49;;;;;;;6.23;5.63;;;;;;;18.67;60.05;101956.06;4989737;28;100039;-86
2022/05/20 06:08:16;;;;;;;7.20;6.30;;;;;;;18.67;59.88;101944.91;4983270;28;96800;-85
2022/05/20 06:10:43;;;;;;;5.90;5.50;;;;;;;18.67;60.05;101942.13;4985358;28;96984;-86
2022/05/20 06:13:09;;;;;;;7.73;6.17;;;;;;;18.66;60.18;101951.78;4995003;28;97973;-85
2022/05/20 06:15:36;;;;;;;6.60;5.90;;;;;;;18.72;60.04;101954.50;5000907;28;97188;-85
2022/05/20 06:18:01;;;;;;;5.47;5.07;;;;;;;18.76;60.19;101949.44;4998483;28;96987;-85
2022/05/20 06:20:27;;;;;;;6.77;5.60;;;;;;;18.81;60.02;101937.47;4985715;28;97280;-85
2022/05/20 06:22:53;;;;;;;5.73;5.23;;;;;;;18.76;59.95;101941.06;4987432;28;97896;-86
2022/05/20 06:25:19;;;;;;;5.50;5.00;;;;;;;18.86;60.19;101958.22;4998820;28;96947;-85
2022/05/20 06:27:45;;;;;;;6.80;5.47;;;;;;;18.95;60.27;101953.09;5001048;28;96892;-85
2022/05/20 06:30:14;;;;;;;5.63;5.03;;;;;;;19.05;60.31;101940.31;4992283;28;97193;-85
2022/05/20 06:32:40;;;;;;;6.23;5.73;;;;;;;19.12;60.35;101941.78;4987396;28;99817;-85
2022/05/20 06:40:37;;;;;;;4.97;4.47;;;;;;;19.23;59.70;101922.91;4994548;28;96881;-86
2022/05/20 06:43:04;;;;;;;4.83;4.43;;;;;;;19.27;59.83;101917.78;4983541;28;98715;-86
2022/05/20 06:45:32;;;;;;;6.47;4.40;;;;;;;19.32;59.92;101930.94;4988128;28;97380;-85
2022/05/20 06:47:58;;;;;;;4.90;4.40;;;;;;;19.39;60.07;101918.47;4982558;28;97158;-86
2022/05/20 06:50:24;;;;;;;5.47;4.53;;;;;;;19.39;59.50;101918.47;4983887;28;97194;-87
2022/05/20 06:52:49;;;;;;;6.03;4.63;;;;;;;19.38;59.33;101931.66;4998309;28;97239;-85
2022/05/20 06:55:15;;;;;;;5.60;5.10;;;;;;;19.42;59.54;101914.59;5004863;28;97285;-86
2022/05/20 06:57:40;;;;;;;5.07;4.67;;;;;;;19.54;59.36;101913.22;4990054;28;97297;-86
2022/05/20 07:00:10;;;;;;;7.90;4.60;;;;;;;19.61;59.14;101914.69;4986077;28;97045;-86
2022/05/20 07:02:35;;;;;;;4.77;4.37;;;;;;;19.59;58.96;101917.22;5005213;28;99829;-86
2022/05/20 07:05:03;;;;;;;5.57;4.60;;;;;;;19.60;58.81;101913.16;4991822;28;96711;-86
2022/05/20 07:07:29;;;;;;;5.00;4.60;;;;;;;19.60;58.65;101919.50;5008741;28;96863;-85
2022/05/20 07:09:54;;;;;;;5.53;4.80;;;;;;;19.64;58.77;101947.09;4990395;28;97039;-85
2022/05/20 07:12:20;;;;;;;5.13;4.63;;;;;;;19.71;58.57;101935.38;4966161;28;98950;-85
2022/05/20 07:14:45;;;;;;;5.17;4.77;;;;;;;19.69;58.59;101943.50;5003984;28;96988;-87
2022/05/20 07:17:16;;;;;;;8.40;4.53;;;;;;;19.68;58.71;101934.38;5007287;28;97800;-86
2022/05/20 07:19:41;;;;;;;5.03;4.43;;;;;;;19.70;58.61;101929.00;4986795;28;97007;-87
2022/05/20 07:22:08;;;;;;;4.80;4.27;;;;;;;19.73;58.74;101938.38;5006309;28;98813;-86
2022/05/20 07:24:33;;;;;;;4.43;4.07;;;;;;;19.82;58.50;101929.66;4990436;28;97434;-86
2022/05/20 07:26:59;;;;;;;4.80;4.40;;;;;;;19.82;58.74;101938.78;4984784;28;97093;-85
2022/05/20 07:29:24;;;;;;;3.73;3.43;;;;;;;19.85;58.79;101928.59;4996089;28;97133;-85
2022/05/20 07:31:49;;;;;;;5.30;3.90;;;;;;;19.88;58.50;101924.75;4989640;28;98352;-87
2022/05/20 07:34:15;;;;;;;4.00;3.60;;;;;;;19.82;58.27;101916.44;4987266;28;98170;-86
2022/05/20 07:36:40;;;;;;;3.80;3.47;;;;;;;19.80;58.10;101935.00;4984079;28;96788;-86
2022/05/20 07:39:08;;;;;;;4.03;3.73;;;;;;;19.85;58.25;101918.19;4960421;28;97395;-86
2022/05/20 07:41:35;;;;;;;3.47;3.17;;;;;;;19.89;58.18;101901.13;4959604;28;97396;-86
2022/05/20 07:44:01;;;;;;;6.67;3.80;;;;;;;19.95;57.78;101894.19;5001363;28;97346;-88
2022/05/20 07:46:27;;;;;;;3.80;3.50;;;;;;;20.01;57.67;101897.66;4980670;28;97044;-85
2022/05/20 07:48:53;;;;;;;3.83;3.53;;;;;;;20.08;57.48;101896.28;4988073;28;97053;-85
2022/05/20 07:51:21;;;;;;;4.63;3.20;;;;;;;20.18;57.43;101886.25;4958940;28;98467;-85
2022/05/20 07:54:08;;;;;;;3.23;2.93;;;;;;;20.35;57.14;101886.81;4985476;28;97710;-85
2022/05/20 07:56:42;;;;;;;3.67;3.23;;;;;;;20.49;56.73;101890.38;4990023;28;97217;-85
2022/05/20 07:59:09;;;;;;;3.67;3.13;;;;;;;20.57;56.67;101891.28;4999109;28;97782;-85
2022/05/20 08:01:39;;;;;;;2.83;2.53;;;;;;;20.55;56.30;101889.00;4985847;28;97216;-85
2022/05/20 08:06:58;;;;;;;2.70;2.50;;;;;;;20.45;56.25;101876.72;5005303;28;96741;-85
2022/05/20 08:09:25;;;;;;;2.77;2.60;;;;;;;20.54;56.00;101879.13;4998332;28;97046;-87
2022/05/20 08:11:50;;;;;;;2.63;2.43;;;;;;;20.61;55.72;101880.53;4989018;28;99881;-86
2022/05/20 08:14:16;;;;;;;3.17;2.87;;;;;;;20.64;55.87;101874.63;5005798;28;97299;-87
2022/05/20 08:16:41;;;;;;;2.97;2.77;;;;;;;20.67;55.58;101870.78;4977930;28;96766;-84
2022/05/20 08:19:07;;;;;;;3.43;2.80;;;;;;;20.74;55.59;101878.56;4983891;28;96963;-86
2022/05/20 08:21:32;;;;;;;5.20;2.10;;;;;;;20.80;55.55;101868.00;4984228;28;99304;-85
2022/05/20 08:23:58;;;;;;;2.27;2.07;;;;;;;20.83;55.15;101863.41;4995934;28;98363;-84
2022/05/20 08:26:23;;;;;;;2.20;2.10;;;;;;;20.80;55.22;101858.84;4983502;28;96886;-85
2022/05/20 08:28:49;;;;;;;2.03;1.93;;;;;;;20.76;54.75;101836.03;4988609;28;96882;-84
2022/05/20 08:31:15;;;;;;;1.83;1.67;;;;;;;20.73;54.61;101846.25;5003607;28;97530;-83
2022/05/20 08:33:40;;;;;;;1.77;1.67;;;;;;;20.69;54.50;101854.22;4985920;28;97170;-84
2022/05/20 08:36:06;;;;;;;2.43;2.23;;;;;;;20.74;54.65;101842.19;4996661;28;97416;-84
2022/05/20 08:38:31;;;;;;;4.50;1.93;;;;;;;20.86;54.61;101823.91;4995148;28;97362;-85
2022/05/20 08:40:58;;;;;;;2.33;1.90;;;;;;;20.99;54.42;101828.75;4997244;28;97043;-86
2022/05/20 08:43:28;;;;;;;2.30;2.10;;;;;;;21.11;54.27;101806.94;4974909;28;96996;-87
2022/05/20 08:45:54;;;;;;;2.37;2.17;;;;;;;21.20;54.29;101812.13;4980144;28;97022;-85
2022/05/20 08:48:19;;;;;;;5.53;2.47;;;;;;;21.33;54.07;101814.91;4981957;28;97006;-86
2022/05/20 08:50:55;;;;;;;3.00;1.93;;;;;;;21.44;52.89;101809.09;4970987;28;97984;-85
2022/05/20 08:53:32;;;;;;;2.00;1.90;;;;;;;21.52;51.67;101812.72;4990158;28;98321;-83
2022/05/20 08:56:02;;;;;;;2.80;1.63;;;;;;;21.44;52.84;101818.25;4987887;28;96876;-84
2022/05/20 08:58:28;;;;;;;1.83;1.73;;;;;;;21.56;52.61;101808.28;4972921;28;97373;-84
2022/05/20 09:00:53;;;;;;;2.17;1.97;;;;;;;21.54;52.46;101815.72;4984114;28;98396;-85
2022/05/20 09:03:20;;;;;;;3.73;1.97;;;;;;;21.51;52.48;101819.63;4986175;28;97671;-86
2022/05/20 09:05:46;;;;;;;1.70;1.60;;;;;;;21.56;53.14;101810.34;4987429;28;96972;-85
2022/05/20 09:08:17;;;;;;;2.33;2.13;;;;;;;21.74;53.14;101803.09;4984365;28;96962;-85
2022/05/20 09:10:46;;;;;;;2.50;2.40;;;;;;;21.88;52.45;101802.56;5000485;28;97902;-84
2022/05/20 09:16:17;;;;;;;1.90;1.80;;;;;;;22.20;52.64;101794.66;5005885;28;97175;-86
2022/05/20 09:18:45;;;;;;;4.00;1.63;;;;;;;22.37;52.46;101795.00;5002471;28;96892;-84
2022/05/20 09:21:33;;;;;;;2.47;2.03;;;;;;;22.48;50.76;101779.16;4985878;28;98313;-85
2022/05/20 09:24:04;;;;;;;2.27;2.17;;;;;;;22.51;51.41;101772.47;5000569;28;100689;-89
2022/05/20 09:26:39;;;;;;;3.83;2.00;;;;;;;22.57;50.78;101764.66;4990874;28;96722;-84
2022/05/20 09:29:31;;;;;;;1.57;1.47;;;;;;;22.66;50.37;101762.16;4977197;28;97323;-86
2022/05/20 09:32:00;;;;;;;1.60;1.50;;;;;;;22.80;50.83;101765.63;4996684;28;100870;-87
2022/05/20 09:34:25;;;;;;;1.70;1.60;;;;;;;22.98;50.66;101753.34;5000827;28;99413;-86
2022/05/20 09:36:57;;;;;;;1.53;1.43;;;;;;;23.17;50.42;101753.84;5002815;28;97199;-86
2022/05/20 09:39:30;;;;;;;1.40;1.30;;;;;;;23.38;49.87;101754.53;4996178;28;97119;-85
2022/05/20 09:42:00;;;;;;;3.60;2.30;;;;;;;23.53;50.14;101757.38;5002962;28;98153;-85
2022/05/20 09:44:36;;;;;;;1.90;1.80;;;;;;;23.65;49.03;101746.56;4995912;28;98391;-87
2022/05/20 09:47:30;;;;;;;2.33;1.80;;;;;;;23.78;48.83;101741.53;5002742;28;97200;-87
2022/05/20 09:50:05;;;;;;;1.40;1.30;;;;;;;23.88;48.82;101738.91;5002195;28;97861;-85
2022/05/20 09:52:53;;;;;;;1.50;1.37;;;;;;;23.92;47.19;101727.31;4990259;28;104004;-86
2022/05/20 09:55:38;;;;;;;1.20;1.10;;;;;;;23.96;47.74;101736.13;5003459;28;96378;-86
2022/05/20 09:58:18;;;;;;;2.13;1.67;;;;;;;24.05;47.58;101722.28;4986499;28;98493;-84
2022/05/20 10:00:59;;;;;;;1.77;1.63;;;;;;;24.14;46.73;101718.16;4998313;28;97429;-84
2022/05/20 10:03:30;;;;;;;3.70;1.70;;;;;;;24.09;46.97;101717.03;5002508;28;97133;-85
2022/05/20 10:06:27;;;;;;;1.20;1.10;;;;;;;24.14;46.77;101715.34;4982842;28;96936;-86
2022/05/20 10:09:26;;;;;;;2.23;1.30;;;;;;;24.21;45.44;101720.22;4979164;28;99237;-86
2022/05/20 10:11:59;;;;;;;3.07;1.27;;;;;;;24.24;46.12;101705.03;4991071;28;98766;-85
2022/05/20 10:14:34;;;;;;;1.80;1.10;;;;;;;24.29;46.07;101707.66;4982122;28;99723;-86
2022/05/20 10:17:09;;;;;;;2.03;1.47;;;;;;;24.33;44.58;101698.84;5002679;28;96805;-85
2022/05/20 10:19:56;;;;;;;1.23;0.83;;;;;;;24.33;45.45;101685.53;4988306;28;97167;-87
2022/05/20 10:22:40;;;;;;;1.30;1.20;;;;;;;24.42;45.79;101684.19;4979259;28;97631;-88
2022/05/20 10:25:12;;;;;;;1.33;1.10;;;;;;;24.47;45.30;101692.44;4981322;28;104283;-86
2022/05/20 10:27:48;;;;;;;4.07;1.17;;;;;;;24.57;44.08;101687.00;4993470;28;99232;-85
2022/05/20 10:33:05;;;;;;;1.13;1.00;;;;;;;24.62;45.07;101691.66;4999598;28;96835;-87
2022/05/20 10:35:53;;;;;;;2.63;1.70;;;;;;;24.72;43.38;101674.94;5003062;28;101041;-88
2022/05/20 10:38:55;;;;;;;1.77;1.50;;;;;;;24.76;44.18;101683.78;5011556;28;101197;-87
2022/05/20 10:41:40;;;;;;;1.60;1.50;;;;;;;24.89;44.03;101670.22;5009070;28;96737;-87
2022/05/20 10:50:33;;;;;;;1.70;1.60;;;;;;;24.97;44.51;101659.66;5008232;28;100015;-88
2022/05/20 10:53:10;;;;;;;1.97;1.80;;;;;;;25.02;44.96;101658.72;5005235;28;97033;-89
2022/05/20 10:55:59;;;;;;;2.40;1.40;;;;;;;25.14;43.34;101650.59;4995963;28;96925;-88
2022/05/20 10:58:43;;;;;;;1.30;1.20;;;;;;;25.15;42.88;101638.00;4991528;28;101039;-86
2022/05/20 11:01:38;;;;;;;1.17;1.10;;;;;;;25.23;43.53;101633.06;4999877;28;100590;-86
2022/05/20 11:04:12;;;;;;;1.70;1.60;;;;;;;25.35;42.55;101622.09;4999400;28;97109;-85
2022/05/20 11:06:43;;;;;;;2.53;1.47;;;;;;;25.31;43.77;101620.44;5005945;28;97109;-88
2022/05/20 11:09:25;;;;;;;1.57;1.47;;;;;;;25.43;44.18;101622.81;4998429;28;99669;-88
2022/05/20 11:12:00;;;;;;;1.53;1.40;;;;;;;25.59;44.25;101616.53;4998438;28;97024;-87
2022/05/20 11:15:03;;;;;;;1.63;1.20;;;;;;;25.73;43.07;101600.06;5000140;28;97072;-87
2022/05/20 11:18:13;;;;;;;1.53;1.33;;;;;;;25.84;43.67;101603.16;4975664;28;99398;-88
2022/05/20 11:21:08;;;;;;;3.60;1.20;;;;;;;25.87;43.07;101606.88;4999699;28;102865;-88
2022/05/20 11:23:50;;;;;;;1.50;1.40;;;;;;;25.89;42.70;101607.81;4966993;28;102565;-87
2022/05/20 11:26:41;;;;;;;1.70;1.60;;;;;;;26.01;43.65;101608.09;4982323;28;96711;-90
2022/05/20 11:29:18;;;;;;;4.50;1.20;;;;;;;26.15;42.90;101595.19;4973284;28;97204;-86
2022/05/20 11:32:07;;;;;;;2.80;1.37;;;;;;;26.19;42.76;101589.88;5001570;28;97636;-86
2022/05/20 11:34:44;;;;;;;2.40;1.40;;;;;;;26.23;43.39;101586.66;4989692;28;102084;-85
2022/05/20 11:37:22;;;;;;;2.23;1.33;;;;;;;26.18;43.08;101579.91;4990449;28;97017;-88
2022/05/20 11:40:15;;;;;;;3.20;1.57;;;;;;;26.14;42.36;101570.38;4996920;28;97386;-86
2022/05/20 11:43:00;;;;;;;1.37;1.30;;;;;;;26.06;43.27;101569.69;4991362;28;102729;-87
2022/05/20 11:45:42;;;;;;;2.57;1.67;;;;;;;26.03;43.29;101572.34;4997026;28;96948;-87
2022/05/20 11:48:35;;;;;;;2.17;1.40;;;;;;;26.01;41.23;101555.22;4999738;28;99098;-88
2022/05/20 11:51:31;;;;;;;2.30;1.10;;;;;;;25.98;42.36;101564.09;5004104;28;97463;-87
2022/05/20 11:54:05;;;;;;;3.53;1.40;;;;;;;25.94;42.22;101552.50;5005427;28;102379;-87
2022/05/20 11:56:42;;;;;;;1.30;1.20;;;;;;;25.94;41.87;101536.31;5002813;28;100116;-88
2022/05/20 11:59:17;;;;;;;1.20;1.10;;;;;;;26.03;41.72;101543.38;4985943;28;96948;-88
2022/05/20 12:01:47;;;;;;;1.90;1.17;;;;;;;26.26;41.80;101538.25;4980708;28;97094;-86
2022/05/20 12:04:14;;;;;;;1.27;1.17;;;;;;;26.40;41.27;101533.78;5002884;28;99728;-86
2022/05/20 12:06:56;;;;;;;1.60;1.50;;;;;;;26.28;39.49;101520.72;4979198;28;97986;-88
2022/05/20 12:09:33;;;;;;;2.60;1.30;;;;;;;26.33;40.85;101503.56;4995585;28;99699;-88
2022/05/20 12:12:16;;;;;;;1.10;1.10;;;;;;;26.56;40.85;101504.00;4986746;28;96818;-88
2022/05/20 12:14:56;;;;;;;1.23;1.13;;;;;;;26.76;40.11;101487.22;4986463;28;102188;-88